TAF KJAC
KJAC 090520Z 0906/1006 20012KT P6SM OVC040 FM091800 01008KT P6SM VCSH SCT030 OVC040=
METAR KJAC
WC KJAC
WS KJAC
WV KJAC